Time;durP1;ratioP1;P1;durP2;ratioP2;P2;SDS_P1;SDS_P2;PMS_P1;PMS_P2;Temp;Humidity;BMP_temperature;BMP_pressure;BME280_temperature;BME280_humidity;BME280_pressure;Samples;Min_cycle;Max_cycle;Signal;HPM_P1;HPM_P2
2021/05/10 00:00:57;;;;;;;27.70;2.92;;;36.20;16.10;;;;;;5113815;28;20080;-53
2021/05/10 00:03:24;;;;;;;24.08;3.00;;;36.10;16.30;;;;;;5113852;28;20603;-52
2021/05/10 00:05:52;;;;;;;21.27;2.45;;;36.00;16.30;;;;;;5113836;28;20121;-55
2021/05/10 00:08:21;;;;;;;16.05;3.25;;;35.90;16.60;;;;;;5113838;28;20114;-54
2021/05/10 00:10:48;;;;;;;20.10;3.17;;;35.90;16.70;;;;;;5113672;28;20076;-53
2021/05/10 00:13:17;;;;;;;20.95;2.78;;;35.80;16.60;;;;;;5113758;28;20163;-51
2021/05/10 00:15:44;;;;;;;19.60;2.35;;;35.80;16.70;;;;;;5113758;28;20588;-53
2021/05/10 00:18:11;;;;;;;33.28;3.13;;;35.60;17.30;;;;;;5113661;28;20141;-52
2021/05/10 00:23:59;;;;;;;14.65;2.85;;;35.40;17.70;;;;;;5113992;28;20098;-50
2021/05/10 00:26:26;;;;;;;25.05;3.13;;;35.40;17.80;;;;;;5095390;28;20072;-56
2021/05/10 00:28:52;;;;;;;33.15;3.17;;;35.20;18.30;;;;;;5113533;28;20074;-52
2021/05/10 00:31:19;;;;;;;26.45;3.00;;;35.10;18.70;;;;;;5113434;28;20075;-57
2021/05/10 00:33:45;;;;;;;27.00;2.95;;;35.00;18.50;;;;;;5113576;28;20068;-53
2021/05/10 00:36:12;;;;;;;27.23;2.97;;;34.90;19.10;;;;;;5113412;28;20087;-53
2021/05/10 00:38:38;;;;;;;27.48;4.00;;;34.80;19.40;;;;;;5113466;28;20234;-52
2021/05/10 00:41:05;;;;;;;22.02;3.40;;;34.80;19.40;;;;;;5113321;28;20129;-54
2021/05/10 00:43:31;;;;;;;25.80;3.35;;;34.70;19.50;;;;;;5113292;28;20064;-51
2021/05/10 00:45:58;;;;;;;28.17;3.80;;;34.60;19.90;;;;;;5115490;28;20071;-51
2021/05/10 00:48:25;;;;;;;31.80;3.70;;;34.50;20.70;;;;;;5117283;28;20115;-49
2021/05/10 00:50:51;;;;;;;34.50;4.15;;;34.30;21.30;;;;;;5117498;28;20079;-55
2021/05/10 00:53:18;;;;;;;45.70;10.15;;;34.20;20.90;;;;;;5117362;28;20128;-49
2021/05/10 00:55:44;;;;;;;42.00;12.57;;;34.10;21.30;;;;;;5117472;28;20064;-50
2021/05/10 00:58:12;;;;;;;56.03;11.38;;;34.00;21.50;;;;;;5117369;28;20072;-53
2021/05/10 01:00:39;;;;;;;32.90;6.22;;;33.90;21.30;;;;;;5117252;28;20072;-52
2021/05/10 01:03:06;;;;;;;28.85;4.22;;;33.80;21.40;;;;;;5117389;28;20152;-53
2021/05/10 01:05:33;;;;;;;70.20;9.80;;;33.70;20.80;;;;;;5117302;28;20437;-53
2021/05/10 01:08:00;;;;;;;43.38;13.45;;;33.70;20.70;;;;;;5117149;28;20597;-49
2021/05/10 01:10:27;;;;;;;44.03;11.15;;;33.50;21.00;;;;;;5098964;28;20510;-53
2021/05/10 01:12:54;;;;;;;48.92;11.27;;;33.40;20.80;;;;;;5117037;28;20080;-51
2021/05/10 01:15:23;;;;;;;41.28;8.63;;;33.40;20.40;;;;;;5117129;28;20129;-53
2021/05/10 01:17:53;;;;;;;32.33;8.57;;;33.30;20.40;;;;;;5098854;28;20080;-53
2021/05/10 01:20:21;;;;;;;39.90;10.90;;;33.20;19.50;;;;;;5117051;28;20158;-54
2021/05/10 01:22:57;;;;;;;42.78;9.15;;;33.10;19.50;;;;;;5116845;28;20569;-57
2021/05/10 01:25:30;;;;;;;42.85;9.57;;;32.90;19.60;;;;;;5117448;28;20076;-52
2021/05/10 01:27:58;;;;;;;44.58;9.15;;;32.90;20.50;;;;;;5116912;28;20128;-55
2021/05/10 01:30:27;;;;;;;34.10;7.03;;;32.70;20.70;;;;;;5116926;28;20078;-54
2021/05/10 01:32:55;;;;;;;39.10;7.72;;;32.60;20.50;;;;;;5116512;28;20122;-57
2021/05/10 01:35:29;;;;;;;25.67;7.05;;;32.60;20.60;;;;;;5116640;28;20103;-56
2021/05/10 01:37:57;;;;;;;42.42;7.60;;;32.60;20.60;;;;;;5116636;28;20092;-54
2021/05/10 01:40:23;;;;;;;29.17;6.32;;;32.50;20.90;;;;;;5116781;28;20774;-53
2021/05/10 01:42:50;;;;;;;26.10;4.72;;;32.40;20.70;;;;;;5116441;28;20183;-58
2021/05/10 01:45:17;;;;;;;31.48;3.72;;;32.40;20.90;;;;;;5116720;28;20107;-56
2021/05/10 01:47:43;;;;;;;45.47;4.45;;;32.30;20.90;;;;;;5116533;28;20128;-53
2021/05/10 01:50:19;;;;;;;38.95;3.95;;;32.20;21.30;;;;;;5116523;28;20068;-56
2021/05/10 01:52:48;;;;;;;25.53;3.10;;;32.00;21.40;;;;;;5116421;28;20087;-58
2021/05/10 01:55:16;;;;;;;36.25;3.35;;;31.90;22.00;;;;;;5116399;28;20084;-54
2021/05/10 01:57:48;;;;;;;24.33;3.10;;;31.80;22.10;;;;;;5115903;28;20101;-56
2021/05/10 02:00:19;;;;;;;34.47;4.55;;;31.70;22.40;;;;;;5116209;28;20406;-52
2021/05/10 02:02:46;;;;;;;28.45;4.32;;;31.60;22.30;;;;;;5116087;28;20550;-56
2021/05/10 02:05:15;;;;;;;37.55;4.72;;;31.40;22.70;;;;;;5116094;28;20079;-57
2021/05/10 02:07:43;;;;;;;36.42;4.40;;;31.20;23.10;;;;;;5116141;28;20068;-58
2021/05/10 02:10:14;;;;;;;28.77;4.07;;;31.10;23.70;;;;;;5116044;28;20103;-56
2021/05/10 02:12:41;;;;;;;19.58;4.20;;;30.90;23.90;;;;;;5116065;28;20072;-55
2021/05/10 02:15:11;;;;;;;14.48;3.72;;;30.80;24.30;;;;;;5115786;28;20509;-54
2021/05/10 02:17:38;;;;;;;31.23;3.70;;;30.70;24.70;;;;;;5115962;28;20083;-52
2021/05/10 02:20:06;;;;;;;23.10;4.57;;;30.60;25.20;;;;;;5115812;28;20075;-53
2021/05/10 02:22:33;;;;;;;29.02;4.00;;;30.50;25.50;;;;;;5116135;28;20553;-53
2021/05/10 02:24:59;;;;;;;22.90;4.15;;;30.40;25.90;;;;;;5097922;28;20076;-52
2021/05/10 02:27:26;;;;;;;21.05;3.75;;;30.30;26.10;;;;;;5115738;28;20528;-54
2021/05/10 02:29:52;;;;;;;27.95;4.57;;;30.10;26.30;;;;;;5115743;28;20510;-53
2021/05/10 02:32:19;;;;;;;22.13;4.10;;;30.10;26.50;;;;;;5115643;28;20616;-55
2021/05/10 02:34:45;;;;;;;26.33;4.03;;;30.00;26.60;;;;;;5115874;28;20074;-53
2021/05/10 02:37:13;;;;;;;29.80;3.55;;;29.90;26.70;;;;;;5115313;28;20121;-54
2021/05/10 02:39:40;;;;;;;22.13;4.28;;;29.80;26.70;;;;;;5097038;28;20072;-53
2021/05/10 02:42:06;;;;;;;26.13;4.70;;;29.70;26.80;;;;;;5114939;28;20100;-51
2021/05/10 02:44:33;;;;;;;26.70;7.05;;;29.60;27.10;;;;;;5115412;28;20068;-53
2021/05/10 02:47:00;;;;;;;28.63;8.25;;;29.50;27.20;;;;;;5115275;28;20076;-53
2021/05/10 02:49:26;;;;;;;37.20;9.68;;;29.40;27.50;;;;;;5114978;28;20147;-52
2021/05/10 02:55:41;;;;;;;24.38;5.03;;;29.20;28.10;;;;;;5115052;28;20083;-58
2021/05/10 02:58:08;;;;;;;43.15;5.93;;;29.20;28.50;;;;;;5114533;28;20167;-55
2021/05/10 03:00:34;;;;;;;31.02;4.53;;;29.00;28.60;;;;;;5114496;28;20078;-56
2021/05/10 03:03:04;;;;;;;28.95;5.93;;;29.00;28.80;;;;;;5114393;28;20168;-52
2021/05/10 03:05:31;;;;;;;24.55;4.30;;;28.90;28.90;;;;;;5114523;28;20079;-53
2021/05/10 03:07:58;;;;;;;31.88;5.25;;;28.80;29.10;;;;;;5113707;28;20100;-53
2021/05/10 03:10:25;;;;;;;27.52;3.53;;;28.80;29.20;;;;;;5114700;28;20068;-54
2021/05/10 03:12:54;;;;;;;25.17;3.92;;;28.70;29.30;;;;;;5114906;28;20485;-53
2021/05/10 03:15:21;;;;;;;27.05;4.47;;;28.60;29.40;;;;;;5114670;28;20068;-54
2021/05/10 03:17:51;;;;;;;22.63;4.13;;;28.60;29.50;;;;;;5114701;28;20072;-56
2021/05/10 03:20:21;;;;;;;24.92;4.85;;;28.60;29.50;;;;;;5114765;28;20128;-53
2021/05/10 03:22:51;;;;;;;24.63;4.75;;;28.50;29.40;;;;;;5114859;28;20178;-53
2021/05/10 03:25:18;;;;;;;31.73;4.30;;;28.40;29.50;;;;;;5114722;28;20083;-57
2021/05/10 03:27:45;;;;;;;41.47;4.30;;;28.40;29.70;;;;;;5114231;28;20102;-54
2021/05/10 03:30:20;;;;;;;16.65;3.75;;;28.30;29.60;;;;;;5114126;28;20624;-52
2021/05/10 03:32:48;;;;;;;24.98;4.10;;;28.20;29.50;;;;;;5114341;28;20072;-56
2021/05/10 03:35:17;;;;;;;28.65;4.20;;;28.20;29.60;;;;;;5114458;28;20078;-56
2021/05/10 03:37:44;;;;;;;38.08;4.95;;;28.10;29.50;;;;;;5114463;28;20096;-57
2021/05/10 03:40:12;;;;;;;50.85;4.68;;;28.10;29.50;;;;;;5114291;28;20068;-55
2021/05/10 03:42:39;;;;;;;34.17;4.45;;;28.10;29.60;;;;;;5114162;28;20100;-56
2021/05/10 03:45:08;;;;;;;28.75;4.05;;;28.00;29.60;;;;;;5114208;28;20426;-57
2021/05/10 03:47:41;;;;;;;39.60;4.45;;;28.00;29.70;;;;;;5114346;28;20152;-58
2021/05/10 03:50:08;;;;;;;44.45;4.75;;;28.00;29.80;;;;;;5114317;28;20096;-54
2021/05/10 03:52:35;;;;;;;26.60;4.45;;;27.90;29.80;;;;;;5114058;28;20534;-51
2021/05/10 03:55:02;;;;;;;30.77;4.60;;;27.90;30.00;;;;;;5114089;28;20116;-54
2021/05/10 03:57:28;;;;;;;35.58;4.63;;;27.80;30.30;;;;;;5113935;28;20060;-55
2021/05/10 03:59:55;;;;;;;40.80;4.60;;;27.80;30.50;;;;;;5113847;28;20604;-56
2021/05/10 04:10:57;;;;;;;26.60;4.10;;;27.50;31.50;;;;;;5113906;28;20064;-54
2021/05/10 04:13:49;;;;;;;34.50;4.00;;;27.50;31.80;;;;;;5113782;28;20535;-53
2021/05/10 04:16:15;;;;;;;30.38;4.28;;;27.50;32.20;;;;;;5095740;28;20195;-53
2021/05/10 04:18:42;;;;;;;26.10;4.38;;;27.40;32.60;;;;;;5113229;28;20433;-53
2021/05/10 04:21:08;;;;;;;26.00;3.95;;;27.40;32.80;;;;;;5113509;28;20165;-55
2021/05/10 04:23:35;;;;;;;25.15;4.10;;;27.30;33.10;;;;;;5113424;28;20217;-51
2021/05/10 04:26:01;;;;;;;36.60;4.03;;;27.30;33.40;;;;;;5113345;28;20076;-54
2021/05/10 04:28:29;;;;;;;23.55;3.78;;;27.20;33.80;;;;;;5113438;28;20097;-56
2021/05/10 04:30:56;;;;;;;20.95;3.65;;;27.20;34.00;;;;;;5113690;28;20087;-52
2021/05/10 04:33:32;;;;;;;15.80;3.38;;;27.10;34.30;;;;;;5113342;28;20075;-54
2021/05/10 04:36:01;;;;;;;16.52;3.70;;;27.00;34.60;;;;;;5113725;28;20089;-54
2021/05/10 04:38:27;;;;;;;28.60;3.83;;;26.90;34.90;;;;;;5113419;28;20076;-51
2021/05/10 04:44:17;;;;;;;22.90;3.50;;;26.80;35.40;;;;;;5114051;28;20095;-54
2021/05/10 04:46:43;;;;;;;19.80;3.63;;;26.70;35.80;;;;;;5113664;28;20068;-55
2021/05/10 04:49:10;;;;;;;16.25;3.75;;;26.60;36.00;;;;;;5113282;28;20120;-53
2021/05/10 04:51:36;;;;;;;15.68;3.75;;;26.60;36.20;;;;;;5113525;28;20113;-54
2021/05/10 04:54:03;;;;;;;28.33;4.32;;;26.60;36.30;;;;;;5113506;28;20076;-57
2021/05/10 04:56:33;;;;;;;21.48;3.97;;;26.60;36.60;;;;;;5113452;28;20638;-55
2021/05/10 04:59:00;;;;;;;24.25;4.22;;;26.50;36.70;;;;;;5113728;28;20073;-55
2021/05/10 05:01:26;;;;;;;23.42;4.80;;;26.50;37.00;;;;;;5113418;28;20068;-55
2021/05/10 05:03:53;;;;;;;26.00;4.75;;;26.50;37.20;;;;;;5113417;28;20159;-52
2021/05/10 05:06:19;;;;;;;24.50;5.40;;;26.50;37.40;;;;;;5113356;28;20103;-56
2021/05/10 05:08:46;;;;;;;21.80;5.47;;;26.40;37.60;;;;;;5113137;28;20076;-58
2021/05/10 05:11:13;;;;;;;25.30;5.95;;;26.30;37.80;;;;;;5113388;28;20069;-59
2021/05/10 05:13:39;;;;;;;27.20;6.75;;;26.30;38.20;;;;;;5113134;28;20521;-57
2021/05/10 05:16:06;;;;;;;20.98;6.60;;;26.20;38.60;;;;;;5107016;28;20116;-56
2021/05/10 05:18:32;;;;;;;33.35;7.20;;;26.20;39.00;;;;;;5112741;28;20092;-54
2021/05/10 05:20:59;;;;;;;28.17;8.00;;;26.20;39.30;;;;;;5112779;28;20155;-54
2021/05/10 05:23:27;;;;;;;30.67;8.70;;;26.20;39.60;;;;;;5112331;28;20099;-55
2021/05/10 05:26:01;;;;;;;37.65;9.02;;;26.10;39.80;;;;;;5112626;28;20083;-57
2021/05/10 05:28:29;;;;;;;29.38;9.15;;;26.10;40.20;;;;;;5094436;28;20084;-55
2021/05/10 05:30:57;;;;;;;39.88;9.00;;;26.00;40.30;;;;;;5113149;28;20075;-55
2021/05/10 05:33:25;;;;;;;30.90;7.75;;;26.00;40.50;;;;;;5116605;28;20072;-53
2021/05/10 05:35:52;;;;;;;35.20;8.35;;;25.90;40.80;;;;;;5116807;28;20074;-60
2021/05/10 05:38:18;;;;;;;31.08;8.50;;;25.90;40.90;;;;;;5116845;28;20151;-53
2021/05/10 05:40:46;;;;;;;33.85;8.68;;;25.90;41.30;;;;;;5116665;28;20072;-54
2021/05/10 05:43:13;;;;;;;27.67;8.15;;;25.90;41.40;;;;;;5116687;28;20436;-59
2021/05/10 05:49:01;;;;;;;26.50;7.95;;;25.70;41.70;;;;;;5114634;28;20173;-54
2021/05/10 05:51:28;;;;;;;32.83;7.47;;;25.60;42.00;;;;;;5116743;28;20099;-56
2021/05/10 05:53:56;;;;;;;37.50;6.90;;;25.60;42.40;;;;;;5116665;28;20099;-55
2021/05/10 05:56:25;;;;;;;33.28;6.65;;;25.60;42.60;;;;;;5116463;28;20502;-53
2021/05/10 05:58:52;;;;;;;32.53;6.65;;;25.50;43.00;;;;;;5116694;28;20492;-57
2021/05/10 06:01:19;;;;;;;26.88;5.88;;;25.50;43.20;;;;;;5116111;28;20129;-57
2021/05/10 06:03:46;;;;;;;23.73;5.38;;;25.40;43.30;;;;;;5116296;28;20068;-56
2021/05/10 06:06:13;;;;;;;23.25;5.07;;;25.40;43.20;;;;;;5116162;28;20068;-58
2021/05/10 06:08:39;;;;;;;21.10;4.63;;;25.40;43.20;;;;;;5097996;28;20134;-52
2021/05/10 06:11:09;;;;;;;19.08;4.78;;;25.40;43.20;;;;;;5116192;28;20068;-55
2021/05/10 06:13:36;;;;;;;19.52;4.47;;;25.40;43.30;;;;;;5097789;28;20080;-57
2021/05/10 06:16:04;;;;;;;29.35;5.20;;;25.30;43.70;;;;;;5115996;28;20072;-54
2021/05/10 06:21:52;;;;;;;16.98;3.75;;;25.20;44.80;;;;;;5116316;28;20138;-53
2021/05/10 06:24:19;;;;;;;16.65;4.18;;;25.20;45.10;;;;;;5115862;28;20448;-54
2021/05/10 06:26:47;;;;;;;20.00;3.60;;;25.10;45.30;;;;;;5115774;28;20068;-56
2021/05/10 06:29:13;;;;;;;18.67;3.75;;;25.10;45.50;;;;;;5098023;28;20104;-53
2021/05/10 06:31:41;;;;;;;16.27;3.55;;;25.00;45.30;;;;;;5097809;28;20170;-55
2021/05/10 06:34:07;;;;;;;13.75;3.10;;;25.00;45.20;;;;;;5115840;28;20151;-56
2021/05/10 06:36:34;;;;;;;16.65;2.95;;;24.90;45.10;;;;;;5115598;28;20072;-53
2021/05/10 06:39:01;;;;;;;15.00;3.08;;;24.80;45.40;;;;;;5115571;28;20088;-52
2021/05/10 06:41:27;;;;;;;12.38;2.88;;;24.70;45.60;;;;;;5097268;28;20084;-53
2021/05/10 06:43:54;;;;;;;17.67;3.08;;;24.70;46.00;;;;;;5115348;28;20445;-55
2021/05/10 06:46:20;;;;;;;16.23;3.50;;;24.60;46.20;;;;;;5115193;28;20068;-56
2021/05/10 06:48:47;;;;;;;17.38;3.53;;;24.60;46.30;;;;;;5115131;28;20608;-56
2021/05/10 06:51:13;;;;;;;16.25;4.15;;;24.50;46.50;;;;;;5115298;28;20095;-53
2021/05/10 06:53:40;;;;;;;20.02;4.18;;;24.50;47.00;;;;;;5115231;28;20076;-56
2021/05/10 06:56:06;;;;;;;15.52;4.28;;;24.50;47.50;;;;;;5115133;28;20071;-54
2021/05/10 06:58:32;;;;;;;15.77;3.78;;;24.50;47.20;;;;;;5114964;28;20572;-54
2021/05/10 07:00:59;;;;;;;20.10;3.60;;;24.40;47.00;;;;;;5115075;28;20072;-55
2021/05/10 07:03:26;;;;;;;19.98;3.88;;;24.40;47.10;;;;;;5114732;28;20095;-56
2021/05/10 07:05:52;;;;;;;23.30;3.70;;;24.30;47.30;;;;;;5114817;28;20117;-58
2021/05/10 07:08:19;;;;;;;17.25;3.40;;;24.30;47.60;;;;;;5114890;28;20079;-56
2021/05/10 07:10:50;;;;;;;21.73;4.00;;;24.20;48.00;;;;;;5114776;28;20079;-55
2021/05/10 07:13:18;;;;;;;16.25;3.03;;;24.20;48.90;;;;;;5114944;28;20118;-55
2021/05/10 07:15:45;;;;;;;16.55;3.22;;;24.20;49.50;;;;;;5114756;28;20068;-55
2021/05/10 07:18:13;;;;;;;20.10;3.95;;;24.20;49.70;;;;;;5114778;28;20072;-51
2021/05/10 07:20:41;;;;;;;22.70;3.65;;;24.10;50.50;;;;;;5114826;28;20072;-52
2021/05/10 07:23:09;;;;;;;16.33;3.22;;;24.10;51.40;;;;;;5114411;28;20099;-53
2021/05/10 07:25:43;;;;;;;16.50;3.72;;;24.00;51.20;;;;;;5114822;28;20072;-55
2021/05/10 07:28:14;;;;;;;16.13;2.67;;;24.00;51.40;;;;;;5114536;28;20460;-54
2021/05/10 07:30:41;;;;;;;16.38;3.03;;;24.00;51.60;;;;;;5114327;28;20068;-51
2021/05/10 07:33:08;;;;;;;15.63;3.17;;;23.90;51.90;;;;;;5114281;28;20529;-53
2021/05/10 07:35:35;;;;;;;13.90;2.80;;;23.80;52.10;;;;;;5114308;28;20590;-53
2021/05/10 07:38:02;;;;;;;21.88;3.35;;;23.80;52.50;;;;;;5114363;28;20129;-53
2021/05/10 07:40:30;;;;;;;20.55;3.17;;;23.70;52.70;;;;;;5114353;28;20064;-56
2021/05/10 07:42:57;;;;;;;17.45;2.95;;;23.70;52.80;;;;;;5114259;28;20149;-52
2021/05/10 07:45:24;;;;;;;14.88;2.78;;;23.70;53.10;;;;;;5114125;28;20119;-52
2021/05/10 07:47:53;;;;;;;18.45;3.17;;;23.60;53.10;;;;;;5113944;28;20209;-53
2021/05/10 07:50:21;;;;;;;16.00;3.40;;;23.60;53.00;;;;;;5114065;28;20088;-52
2021/05/10 07:52:48;;;;;;;14.40;3.47;;;23.60;53.10;;;;;;5114150;28;20065;-51
2021/05/10 07:55:15;;;;;;;20.63;3.92;;;23.60;53.20;;;;;;5113920;28;20525;-50
2021/05/10 07:57:41;;;;;;;18.55;3.47;;;23.60;53.10;;;;;;5114121;28;20513;-51
2021/05/10 08:00:13;;;;;;;19.58;3.40;;;23.60;53.10;;;;;;5114472;28;20066;-52
2021/05/10 08:02:42;;;;;;;19.77;3.53;;;23.50;53.10;;;;;;5114389;28;20475;-53
2021/05/10 08:05:09;;;;;;;19.25;3.53;;;23.40;53.10;;;;;;5113912;28;20439;-55
2021/05/10 08:07:36;;;;;;;16.83;3.42;;;23.50;53.10;;;;;;5113885;28;20076;-55
2021/05/10 08:10:05;;;;;;;22.77;3.80;;;23.50;53.00;;;;;;5113923;28;20065;-54
2021/05/10 08:12:31;;;;;;;14.80;3.20;;;23.40;53.10;;;;;;5095693;28;20068;-56
2021/05/10 08:14:58;;;;;;;18.73;3.90;;;23.40;53.30;;;;;;5114065;28;20425;-56
2021/05/10 08:17:25;;;;;;;26.77;3.15;;;23.30;53.60;;;;;;5095667;28;20072;-56
2021/05/10 08:19:52;;;;;;;13.93;2.97;;;23.40;53.50;;;;;;5113725;28;20072;-56
2021/05/10 08:22:18;;;;;;;12.18;3.25;;;23.40;53.00;;;;;;5113700;28;20172;-53
2021/05/10 08:24:45;;;;;;;13.35;2.88;;;23.30;53.10;;;;;;5113690;28;20523;-54
2021/05/10 08:27:11;;;;;;;17.92;3.45;;;23.30;53.10;;;;;;5113445;28;20532;-54
2021/05/10 08:29:38;;;;;;;9.82;2.80;;;23.20;53.00;;;;;;5113655;28;20067;-55
2021/05/10 08:32:05;;;;;;;20.90;3.97;;;23.30;53.00;;;;;;5113439;28;20083;-56
2021/05/10 08:34:31;;;;;;;15.27;3.13;;;23.10;52.90;;;;;;5113273;28;20068;-54
2021/05/10 08:36:58;;;;;;;15.40;3.28;;;23.10;53.10;;;;;;5113388;28;20084;-54
2021/05/10 08:39:25;;;;;;;14.48;3.17;;;23.10;53.20;;;;;;5113491;28;20068;-56
2021/05/10 08:41:51;;;;;;;17.50;3.47;;;23.10;53.30;;;;;;5113278;28;20100;-55
2021/05/10 08:44:19;;;;;;;22.40;3.70;;;23.10;53.00;;;;;;5113395;28;20082;-55
2021/05/10 08:46:45;;;;;;;18.42;3.60;;;23.10;52.80;;;;;;5113461;28;20126;-53
2021/05/10 08:49:17;;;;;;;13.43;2.72;;;23.10;52.70;;;;;;5113182;28;20120;-55
2021/05/10 08:51:44;;;;;;;14.43;3.70;;;23.00;53.50;;;;;;5113264;28;20068;-52
2021/05/10 08:54:18;;;;;;;17.40;3.85;;;23.10;53.00;;;;;;5113262;28;20145;-55
2021/05/10 08:56:46;;;;;;;12.85;3.10;;;23.10;52.50;;;;;;5113164;28;20076;-55
2021/05/10 08:59:12;;;;;;;15.90;3.17;;;22.90;52.50;;;;;;5113319;28;20072;-55
2021/05/10 09:01:54;;;;;;;18.10;3.50;;;22.90;52.50;;;;;;5113227;28;20187;-54
2021/05/10 09:04:31;;;;;;;14.35;2.85;;;23.00;52.70;;;;;;5113273;28;20076;-53
2021/05/10 09:07:23;;;;;;;16.50;3.60;;;23.00;52.00;;;;;;5115481;28;20472;-52
2021/05/10 09:10:00;;;;;;;12.95;3.15;;;23.00;51.90;;;;;;5117340;28;20080;-54
2021/05/10 09:12:49;;;;;;;16.77;3.70;;;22.90;52.00;;;;;;5117403;28;20103;-52
2021/05/10 09:15:20;;;;;;;17.13;3.58;;;22.80;52.20;;;;;;5117201;28;20105;-55
2021/05/10 09:17:58;;;;;;;18.65;3.55;;;22.90;52.90;;;;;;5117133;28;20064;-53
2021/05/10 09:20:41;;;;;;;18.48;3.42;;;22.90;52.60;;;;;;5117374;28;20418;-55
2021/05/10 09:23:13;;;;;;;17.17;3.60;;;22.90;52.40;;;;;;5117097;28;20457;-54
2021/05/10 09:25:41;;;;;;;20.67;4.00;;;22.90;51.90;;;;;;5116872;28;20083;-53
2021/05/10 09:28:11;;;;;;;18.25;3.42;;;22.80;52.00;;;;;;5116824;28;20085;-55
2021/05/10 09:30:39;;;;;;;25.85;4.28;;;22.80;52.30;;;;;;5116951;28;20597;-55
2021/05/10 09:33:06;;;;;;;18.38;4.50;;;22.80;52.00;;;;;;5116951;28;20151;-52
2021/05/10 09:35:33;;;;;;;21.60;4.82;;;22.80;51.40;;;;;;5116769;28;20068;-53
2021/05/10 09:38:05;;;;;;;21.83;4.50;;;22.70;51.50;;;;;;5116736;28;20074;-53
2021/05/10 09:40:42;;;;;;;18.00;4.43;;;22.70;51.40;;;;;;5116749;28;20121;-55
2021/05/10 09:43:10;;;;;;;18.77;4.28;;;22.70;51.60;;;;;;5116581;28;20099;-52
2021/05/10 09:45:46;;;;;;;16.98;4.53;;;22.70;51.40;;;;;;5117946;28;20100;-56
2021/05/10 09:48:16;;;;;;;22.80;4.10;;;22.70;51.20;;;;;;5116337;28;20160;-53
2021/05/10 09:50:45;;;;;;;16.58;3.80;;;22.60;51.00;;;;;;5116576;28;20076;-54
2021/05/10 09:53:15;;;;;;;20.75;4.93;;;22.50;51.00;;;;;;5116532;28;20418;-54
2021/05/10 09:59:13;;;;;;;22.23;4.32;;;22.40;50.00;;;;;;5116457;28;20075;-55
2021/05/10 10:05:02;;;;;;;19.50;4.20;;;22.40;48.60;;;;;;5116769;28;20086;-53
2021/05/10 10:07:29;;;;;;;19.20;3.72;;;22.30;48.60;;;;;;5098050;28;20076;-53
2021/05/10 10:09:55;;;;;;;14.98;3.30;;;22.40;48.20;;;;;;5116127;28;20522;-53
2021/05/10 10:12:22;;;;;;;14.20;3.78;;;22.30;47.80;;;;;;5116420;28;20502;-55
2021/05/10 10:14:48;;;;;;;17.33;3.63;;;22.10;47.50;;;;;;5116086;28;20068;-55
2021/05/10 10:17:15;;;;;;;10.98;3.60;;;22.10;47.90;;;;;;5115472;28;20076;-52
2021/05/10 10:23:07;;;;;;;19.65;3.28;;;22.20;46.70;;;;;;5115976;28;20441;-57
2021/05/10 10:25:38;;;;;;;17.13;4.10;;;22.20;45.90;;;;;;5115841;28;20079;-54
2021/05/10 10:28:09;;;;;;;15.80;3.50;;;22.20;45.30;;;;;;5115814;28;20080;-53
2021/05/10 10:30:42;;;;;;;16.33;3.42;;;22.20;45.60;;;;;;5115882;28;20573;-56
2021/05/10 10:33:18;;;;;;;20.48;3.88;;;22.10;45.00;;;;;;5115759;28;20151;-56
2021/05/10 10:35:45;;;;;;;23.92;3.22;;;22.10;44.60;;;;;;5116112;28;20078;-53
2021/05/10 10:38:12;;;;;;;17.00;3.20;;;22.10;45.00;;;;;;5115678;28;20155;-54
2021/05/10 10:44:28;;;;;;;15.20;2.97;;;22.10;44.10;;;;;;5115805;28;20132;-54
2021/05/10 10:46:54;;;;;;;19.88;2.78;;;22.10;43.40;;;;;;5115526;28;20500;-57
2021/05/10 10:49:53;;;;;;;14.45;2.67;;;22.00;43.50;;;;;;5115133;28;20120;-58
2021/05/10 10:52:24;;;;;;;20.10;3.13;;;21.90;43.40;;;;;;5114823;28;20197;-53
2021/05/10 10:55:13;;;;;;;16.08;3.42;;;21.90;43.70;;;;;;5097278;28;20114;-57
2021/05/10 10:57:39;;;;;;;16.73;3.47;;;21.90;43.70;;;;;;5115237;28;20084;-56
2021/05/10 11:00:07;;;;;;;12.45;3.22;;;21.90;42.90;;;;;;5115221;28;20100;-55
2021/05/10 11:02:47;;;;;;;16.73;3.83;;;21.80;42.90;;;;;;5114960;28;20091;-53
2021/05/10 11:05:14;;;;;;;22.88;5.65;;;21.80;42.50;;;;;;5115109;28;20094;-52
2021/05/10 11:08:14;;;;;;;19.80;5.15;;;21.80;42.40;;;;;;5114998;28;20068;-52
2021/05/10 11:10:51;;;;;;;20.98;5.47;;;21.80;41.70;;;;;;5115272;28;20509;-53
2021/05/10 11:13:30;;;;;;;21.08;4.53;;;21.70;41.40;;;;;;5114913;28;20072;-56
2021/05/10 11:15:57;;;;;;;17.27;3.40;;;21.70;41.20;;;;;;5114876;28;20494;-54
2021/05/10 11:18:55;;;;;;;26.23;3.90;;;21.70;40.10;;;;;;5114865;28;20163;-55
2021/05/10 11:21:22;;;;;;;15.93;3.60;;;21.70;38.90;;;;;;5114798;28;20072;-54
2021/05/10 11:27:28;;;;;;;16.58;3.35;;;21.70;38.80;;;;;;5115049;28;20125;-56
2021/05/10 11:33:17;;;;;;;15.27;3.22;;;21.50;37.80;;;;;;5114931;28;20152;-55
2021/05/10 11:35:43;;;;;;;17.20;3.13;;;21.50;38.10;;;;;;5114369;28;20125;-55
2021/05/10 11:38:10;;;;;;;15.43;3.38;;;21.50;37.70;;;;;;5114403;28;20082;-52
2021/05/10 11:40:36;;;;;;;24.77;3.28;;;21.50;37.90;;;;;;5114351;28;20121;-53
2021/05/10 11:43:18;;;;;;;18.23;3.20;;;21.60;38.40;;;;;;5114179;28;20100;-56
2021/05/10 11:45:45;;;;;;;19.55;3.30;;;21.40;38.60;;;;;;5114270;28;20068;-52
2021/05/10 11:48:11;;;;;;;19.45;3.35;;;21.40;39.00;;;;;;5113951;28;20195;-55
2021/05/10 11:50:45;;;;;;;16.90;3.20;;;21.40;38.30;;;;;;5114156;28;20064;-54
2021/05/10 11:53:15;;;;;;;16.92;3.17;;;21.40;38.10;;;;;;5113903;28;20075;-54
2021/05/10 11:56:00;;;;;;;17.17;3.55;;;21.30;38.40;;;;;;5114218;28;20064;-56
2021/05/10 11:58:46;;;;;;;21.27;3.50;;;21.30;38.20;;;;;;5113994;28;20083;-53
2021/05/10 12:01:12;;;;;;;22.23;3.58;;;21.30;38.60;;;;;;5114215;28;20074;-51
2021/05/10 12:07:00;;;;;;;17.20;3.90;;;21.10;38.90;;;;;;5114068;28;20091;-52
2021/05/10 12:09:50;;;;;;;23.13;4.35;;;21.10;38.70;;;;;;5113905;28;20071;-53
2021/05/10 12:12:16;;;;;;;15.88;4.30;;;21.10;38.70;;;;;;5113926;28;20104;-56
2021/05/10 12:14:49;;;;;;;;;;;21.10;38.90;;;;;;5114257;28;20064;-53
2021/05/10 12:17:27;;;;;;;20.50;4.40;;;21.10;39.10;;;;;;5113635;28;19956;-55
2021/05/10 12:23:18;;;;;;;30.58;4.78;;;21.10;39.10;;;;;;5113750;28;20110;-56
2021/05/10 12:25:45;;;;;;;18.20;4.32;;;21.20;39.40;;;;;;5113655;28;20147;-56
2021/05/10 12:28:23;;;;;;;28.80;4.47;;;21.10;39.70;;;;;;5113575;28;20420;-53
2021/05/10 12:30:57;;;;;;;21.27;3.75;;;21.20;39.70;;;;;;5113604;28;20133;-56
2021/05/10 12:33:28;;;;;;;17.73;3.63;;;21.00;39.60;;;;;;5113538;28;20441;-56
2021/05/10 12:36:03;;;;;;;17.98;3.85;;;20.90;40.10;;;;;;5113747;28;20109;-56
2021/05/10 12:38:43;;;;;;;18.67;3.60;;;20.80;41.00;;;;;;5113543;28;20099;-53
2021/05/10 12:41:22;;;;;;;13.68;3.65;;;20.80;41.70;;;;;;5113341;28;20525;-54
2021/05/10 12:43:51;;;;;;;18.05;3.60;;;20.80;41.40;;;;;;5113510;28;20096;-55
2021/05/10 12:46:18;;;;;;;18.13;3.72;;;20.80;41.60;;;;;;5113689;28;20072;-55
2021/05/10 12:48:46;;;;;;;14.38;4.18;;;20.80;42.10;;;;;;5113196;28;20123;-52
2021/05/10 12:51:21;;;;;;;19.42;3.50;;;20.80;42.10;;;;;;5113372;28;20063;-54
2021/05/10 12:54:00;;;;;;;21.38;3.95;;;20.80;42.10;;;;;;5113304;28;20108;-52
2021/05/10 12:56:29;;;;;;;15.15;3.80;;;20.70;42.20;;;;;;5113428;28;20064;-53
2021/05/10 12:59:01;;;;;;;19.50;3.92;;;20.70;43.30;;;;;;5113478;28;20079;-57
2021/05/10 13:01:31;;;;;;;18.17;3.65;;;20.60;43.40;;;;;;5113546;28;20072;-52
2021/05/10 13:07:20;;;;;;;26.75;3.92;;;20.70;43.50;;;;;;5113654;28;20123;-53
2021/05/10 13:09:47;;;;;;;14.40;3.30;;;20.70;44.00;;;;;;5113058;28;20064;-52
2021/05/10 13:12:13;;;;;;;20.40;3.25;;;20.70;44.70;;;;;;5113369;28;20112;-52
2021/05/10 13:14:51;;;;;;;22.25;3.67;;;20.60;44.90;;;;;;5113064;28;20087;-54
2021/05/10 13:20:35;;;;;;;21.45;4.03;;;20.60;45.90;;;;;;5078631;28;20441;-52
2021/05/10 13:31:51;;;;;;;32.92;4.38;;;20.80;46.10;;;;;;5078798;28;20556;-52
2021/05/10 13:36:50;;;;;;;28.90;4.78;;;20.80;46.30;;;;;;5113169;28;20060;-53
2021/05/10 13:42:40;;;;;;;28.20;4.30;;;20.90;46.60;;;;;;5113080;28;20106;-54
2021/05/10 13:45:07;;;;;;;24.63;4.78;;;20.90;46.20;;;;;;5112836;28;20126;-53
2021/05/10 13:47:34;;;;;;;33.00;4.18;;;21.00;47.30;;;;;;5112997;28;20072;-52
2021/05/10 13:50:00;;;;;;;25.00;4.22;;;21.10;46.80;;;;;;5112770;28;20206;-51
2021/05/10 13:52:26;;;;;;;30.40;4.45;;;21.10;46.60;;;;;;5113937;28;20440;-53
2021/05/10 13:54:53;;;;;;;21.45;4.13;;;21.10;46.90;;;;;;5116592;28;20449;-53
2021/05/10 13:57:19;;;;;;;27.58;4.65;;;21.20;47.10;;;;;;5116517;28;20068;-52
2021/05/10 13:59:46;;;;;;;32.88;5.07;;;21.30;47.60;;;;;;5116292;28;20151;-56
2021/05/10 14:02:12;;;;;;;25.25;4.47;;;21.40;47.80;;;;;;5116133;28;20092;-54